sensor_id;sensor_type;location;lat;lon;timestamp;temperature;humidity
7566;DHT22;3824;48.010;7.832;2022-10-16T00:02:25;16.30;99.90
7566;DHT22;3824;48.010;7.832;2022-10-16T00:04:52;16.30;99.90
7566;DHT22;3824;48.010;7.832;2022-10-16T00:07:20;16.30;99.90
7566;DHT22;3824;48.010;7.832;2022-10-16T00:09:47;16.20;99.90
7566;DHT22;3824;48.010;7.832;2022-10-16T00:12:15;16.20;99.90
7566;DHT22;3824;48.010;7.832;2022-10-16T00:14:42;16.20;99.90
7566;DHT22;3824;48.010;7.832;2022-10-16T00:17:09;16.10;99.90
7566;DHT22;3824;48.010;7.832;2022-10-16T00:19:36;16.10;99.90
7566;DHT22;3824;48.010;7.832;2022-10-16T00:22:03;16.10;99.90
7566;DHT22;3824;48.010;7.832;2022-10-16T00:24:29;16.00;99.90
7566;DHT22;3824;48.010;7.832;2022-10-16T00:26:56;16.00;99.90
7566;DHT22;3824;48.010;7.832;2022-10-16T00:29:24;16.00;99.90
7566;DHT22;3824;48.010;7.832;2022-10-16T00:31:51;15.90;99.90
7566;DHT22;3824;48.010;7.832;2022-10-16T00:34:18;15.90;99.90
7566;DHT22;3824;48.010;7.832;2022-10-16T00:36:45;15.80;99.90
7566;DHT22;3824;48.010;7.832;2022-10-16T00:39:12;15.70;99.90
7566;DHT22;3824;48.010;7.832;2022-10-16T00:41:38;15.70;99.90
7566;DHT22;3824;48.010;7.832;2022-10-16T00:47:08;15.60;99.90
7566;DHT22;3824;48.010;7.832;2022-10-16T00:49:35;15.70;99.90
7566;DHT22;3824;48.010;7.832;2022-10-16T00:52:02;15.60;99.90
7566;DHT22;3824;48.010;7.832;2022-10-16T00:54:31;15.60;99.90
7566;DHT22;3824;48.010;7.832;2022-10-16T00:57:01;15.60;99.90
7566;DHT22;3824;48.010;7.832;2022-10-16T00:59:30;15.60;99.90
7566;DHT22;3824;48.010;7.832;2022-10-16T01:01:57;15.70;99.90
7566;DHT22;3824;48.010;7.832;2022-10-16T01:04:26;15.60;99.90
7566;DHT22;3824;48.010;7.832;2022-10-16T01:07:03;15.60;99.90
7566;DHT22;3824;48.010;7.832;2022-10-16T01:09:36;15.60;99.90
7566;DHT22;3824;48.010;7.832;2022-10-16T01:12:09;15.50;99.90
7566;DHT22;3824;48.010;7.832;2022-10-16T01:14:41;15.70;99.90
7566;DHT22;3824;48.010;7.832;2022-10-16T01:17:13;15.80;99.90
7566;DHT22;3824;48.010;7.832;2022-10-16T01:19:55;15.50;99.90
7566;DHT22;3824;48.010;7.832;2022-10-16T01:22:35;15.50;99.90
7566;DHT22;3824;48.010;7.832;2022-10-16T01:25:07;15.50;99.90
7566;DHT22;3824;48.010;7.832;2022-10-16T01:27:39;15.50;99.90
7566;DHT22;3824;48.010;7.832;2022-10-16T01:30:10;15.40;99.90
7566;DHT22;3824;48.010;7.832;2022-10-16T01:32:41;15.40;99.90
7566;DHT22;3824;48.010;7.832;2022-10-16T01:35:11;15.40;99.90
7566;DHT22;3824;48.010;7.832;2022-10-16T01:37:45;15.30;99.90
7566;DHT22;3824;48.010;7.832;2022-10-16T01:40:16;15.60;99.90
7566;DHT22;3824;48.010;7.832;2022-10-16T01:42:47;15.30;99.90
7566;DHT22;3824;48.010;7.832;2022-10-16T01:45:17;15.20;99.90
7566;DHT22;3824;48.010;7.832;2022-10-16T01:47:46;15.10;99.90
7566;DHT22;3824;48.010;7.832;2022-10-16T01:50:16;15.10;99.90
7566;DHT22;3824;48.010;7.832;2022-10-16T01:52:46;15.20;99.90
7566;DHT22;3824;48.010;7.832;2022-10-16T01:55:17;15.20;99.90
7566;DHT22;3824;48.010;7.832;2022-10-16T01:57:48;15.20;99.90
7566;DHT22;3824;48.010;7.832;2022-10-16T02:00:18;15.30;99.90
7566;DHT22;3824;48.010;7.832;2022-10-16T02:02:49;15.40;99.90
7566;DHT22;3824;48.010;7.832;2022-10-16T02:05:22;15.40;99.90
7566;DHT22;3824;48.010;7.832;2022-10-16T02:07:50;15.30;99.90
7566;DHT22;3824;48.010;7.832;2022-10-16T02:10:17;15.40;99.90
7566;DHT22;3824;48.010;7.832;2022-10-16T02:12:49;15.30;99.90
7566;DHT22;3824;48.010;7.832;2022-10-16T02:15:17;15.60;99.90
7566;DHT22;3824;48.010;7.832;2022-10-16T02:17:44;15.40;99.90
7566;DHT22;3824;48.010;7.832;2022-10-16T02:20:11;15.40;99.90
7566;DHT22;3824;48.010;7.832;2022-10-16T02:22:40;15.40;99.90
7566;DHT22;3824;48.010;7.832;2022-10-16T02:25:11;15.40;99.90
7566;DHT22;3824;48.010;7.832;2022-10-16T02:27:44;15.40;99.90
7566;DHT22;3824;48.010;7.832;2022-10-16T02:30:17;15.40;99.90
7566;DHT22;3824;48.010;7.832;2022-10-16T02:32:48;15.40;99.90
7566;DHT22;3824;48.010;7.832;2022-10-16T02:35:17;15.40;99.90
7566;DHT22;3824;48.010;7.832;2022-10-16T02:37:45;15.40;99.90
7566;DHT22;3824;48.010;7.832;2022-10-16T02:40:13;15.30;99.90
7566;DHT22;3824;48.010;7.832;2022-10-16T02:42:40;15.30;99.90
7566;DHT22;3824;48.010;7.832;2022-10-16T02:45:09;15.20;99.90
7566;DHT22;3824;48.010;7.832;2022-10-16T02:47:38;15.10;99.90
7566;DHT22;3824;48.010;7.832;2022-10-16T02:50:05;15.10;99.90
7566;DHT22;3824;48.010;7.832;2022-10-16T02:52:32;15.10;99.90
7566;DHT22;3824;48.010;7.832;2022-10-16T02:54:59;15.10;99.90
7566;DHT22;3824;48.010;7.832;2022-10-16T02:57:26;15.10;99.90
7566;DHT22;3824;48.010;7.832;2022-10-16T02:59:53;15.20;99.90
7566;DHT22;3824;48.010;7.832;2022-10-16T03:02:21;15.20;99.90
7566;DHT22;3824;48.010;7.832;2022-10-16T03:04:49;15.20;99.90
7566;DHT22;3824;48.010;7.832;2022-10-16T03:07:16;15.30;99.90
7566;DHT22;3824;48.010;7.832;2022-10-16T03:09:43;15.40;99.90
7566;DHT22;3824;48.010;7.832;2022-10-16T03:12:09;15.30;99.90
7566;DHT22;3824;48.010;7.832;2022-10-16T03:14:37;15.40;99.90
7566;DHT22;3824;48.010;7.832;2022-10-16T03:17:05;15.40;99.90
7566;DHT22;3824;48.010;7.832;2022-10-16T03:19:32;15.40;99.90
7566;DHT22;3824;48.010;7.832;2022-10-16T03:22:00;15.60;99.90
7566;DHT22;3824;48.010;7.832;2022-10-16T03:24:27;15.50;99.90
7566;DHT22;3824;48.010;7.832;2022-10-16T03:26:53;15.40;99.90
7566;DHT22;3824;48.010;7.832;2022-10-16T03:29:20;15.40;99.90
7566;DHT22;3824;48.010;7.832;2022-10-16T03:31:47;15.40;99.90
7566;DHT22;3824;48.010;7.832;2022-10-16T03:34:15;15.30;99.90
7566;DHT22;3824;48.010;7.832;2022-10-16T03:36:41;15.30;99.90
7566;DHT22;3824;48.010;7.832;2022-10-16T03:39:09;15.30;99.90
7566;DHT22;3824;48.010;7.832;2022-10-16T03:41:36;15.30;99.90
7566;DHT22;3824;48.010;7.832;2022-10-16T03:44:03;15.30;99.90
7566;DHT22;3824;48.010;7.832;2022-10-16T03:46:30;15.40;99.90
7566;DHT22;3824;48.010;7.832;2022-10-16T03:48:57;15.40;99.90
7566;DHT22;3824;48.010;7.832;2022-10-16T03:51:24;15.40;99.90
7566;DHT22;3824;48.010;7.832;2022-10-16T03:53:50;15.40;99.90
7566;DHT22;3824;48.010;7.832;2022-10-16T03:56:18;15.50;99.90
7566;DHT22;3824;48.010;7.832;2022-10-16T03:58:45;15.50;99.90
7566;DHT22;3824;48.010;7.832;2022-10-16T04:01:12;15.50;99.90
7566;DHT22;3824;48.010;7.832;2022-10-16T04:03:39;15.60;99.90
7566;DHT22;3824;48.010;7.832;2022-10-16T04:06:06;15.60;99.90
7566;DHT22;3824;48.010;7.832;2022-10-16T04:08:32;15.80;99.90
7566;DHT22;3824;48.010;7.832;2022-10-16T04:11:02;15.80;99.90
7566;DHT22;3824;48.010;7.832;2022-10-16T04:13:30;15.80;99.90
7566;DHT22;3824;48.010;7.832;2022-10-16T04:15:57;15.80;99.90
7566;DHT22;3824;48.010;7.832;2022-10-16T04:18:24;15.80;99.90
7566;DHT22;3824;48.010;7.832;2022-10-16T04:20:52;15.90;99.90
7566;DHT22;3824;48.010;7.832;2022-10-16T04:23:19;15.90;99.90
7566;DHT22;3824;48.010;7.832;2022-10-16T04:25:46;15.90;99.90
7566;DHT22;3824;48.010;7.832;2022-10-16T04:28:13;16.00;99.90
7566;DHT22;3824;48.010;7.832;2022-10-16T04:30:41;16.00;99.90
7566;DHT22;3824;48.010;7.832;2022-10-16T04:33:09;16.00;99.90
7566;DHT22;3824;48.010;7.832;2022-10-16T04:35:35;16.10;99.90
7566;DHT22;3824;48.010;7.832;2022-10-16T04:38:02;16.00;99.90
7566;DHT22;3824;48.010;7.832;2022-10-16T04:40:29;16.10;99.90
7566;DHT22;3824;48.010;7.832;2022-10-16T04:42:58;16.10;99.90
7566;DHT22;3824;48.010;7.832;2022-10-16T04:45:25;16.10;99.90
7566;DHT22;3824;48.010;7.832;2022-10-16T04:47:56;16.10;99.90
7566;DHT22;3824;48.010;7.832;2022-10-16T04:50:23;16.20;99.90
7566;DHT22;3824;48.010;7.832;2022-10-16T04:52:50;16.10;99.90
7566;DHT22;3824;48.010;7.832;2022-10-16T04:55:17;16.20;99.90
7566;DHT22;3824;48.010;7.832;2022-10-16T04:57:44;16.20;99.90
7566;DHT22;3824;48.010;7.832;2022-10-16T05:00:11;12.90;99.90
7566;DHT22;3824;48.010;7.832;2022-10-16T05:02:38;16.20;99.90
7566;DHT22;3824;48.010;7.832;2022-10-16T05:05:07;16.20;99.90
7566;DHT22;3824;48.010;7.832;2022-10-16T05:07:34;16.20;99.90
7566;DHT22;3824;48.010;7.832;2022-10-16T05:10:01;16.30;99.90
7566;DHT22;3824;48.010;7.832;2022-10-16T05:12:27;16.30;99.90
7566;DHT22;3824;48.010;7.832;2022-10-16T05:14:54;16.30;99.90
7566;DHT22;3824;48.010;7.832;2022-10-16T05:17:23;16.30;99.90
7566;DHT22;3824;48.010;7.832;2022-10-16T05:19:51;16.30;99.90
7566;DHT22;3824;48.010;7.832;2022-10-16T05:22:19;16.30;99.90
7566;DHT22;3824;48.010;7.832;2022-10-16T05:24:46;16.30;99.90
7566;DHT22;3824;48.010;7.832;2022-10-16T05:27:13;16.30;99.90
7566;DHT22;3824;48.010;7.832;2022-10-16T05:29:44;16.30;99.90
7566;DHT22;3824;48.010;7.832;2022-10-16T05:32:12;16.30;99.90
7566;DHT22;3824;48.010;7.832;2022-10-16T05:34:39;16.30;99.90
7566;DHT22;3824;48.010;7.832;2022-10-16T05:37:05;16.30;99.90
7566;DHT22;3824;48.010;7.832;2022-10-16T05:39:34;16.30;99.90
7566;DHT22;3824;48.010;7.832;2022-10-16T05:42:02;16.40;99.90
7566;DHT22;3824;48.010;7.832;2022-10-16T05:44:29;16.30;99.90
7566;DHT22;3824;48.010;7.832;2022-10-16T05:46:56;16.40;99.90
7566;DHT22;3824;48.010;7.832;2022-10-16T05:49:22;16.40;99.90
7566;DHT22;3824;48.010;7.832;2022-10-16T05:51:49;16.40;99.90
7566;DHT22;3824;48.010;7.832;2022-10-16T05:54:16;16.40;99.90
7566;DHT22;3824;48.010;7.832;2022-10-16T05:56:44;16.40;99.90
7566;DHT22;3824;48.010;7.832;2022-10-16T05:59:11;16.40;99.90
7566;DHT22;3824;48.010;7.832;2022-10-16T06:01:38;16.40;99.90
7566;DHT22;3824;48.010;7.832;2022-10-16T06:04:05;16.50;99.90
7566;DHT22;3824;48.010;7.832;2022-10-16T06:06:32;16.50;99.90
7566;DHT22;3824;48.010;7.832;2022-10-16T06:08:59;16.60;99.90
7566;DHT22;3824;48.010;7.832;2022-10-16T06:11:27;16.60;99.90
7566;DHT22;3824;48.010;7.832;2022-10-16T06:13:57;16.60;99.90
7566;DHT22;3824;48.010;7.832;2022-10-16T06:16:26;16.60;99.90
7566;DHT22;3824;48.010;7.832;2022-10-16T06:18:54;16.60;99.90
7566;DHT22;3824;48.010;7.832;2022-10-16T06:21:22;16.60;99.90
7566;DHT22;3824;48.010;7.832;2022-10-16T06:23:50;16.70;99.90
7566;DHT22;3824;48.010;7.832;2022-10-16T06:26:18;16.70;99.90
7566;DHT22;3824;48.010;7.832;2022-10-16T06:28:46;16.70;99.90
7566;DHT22;3824;48.010;7.832;2022-10-16T06:31:14;16.80;99.90
7566;DHT22;3824;48.010;7.832;2022-10-16T06:33:41;16.80;99.90
7566;DHT22;3824;48.010;7.832;2022-10-16T06:36:09;16.80;99.90
7566;DHT22;3824;48.010;7.832;2022-10-16T06:38:38;16.80;99.90
7566;DHT22;3824;48.010;7.832;2022-10-16T06:41:06;16.90;99.90
7566;DHT22;3824;48.010;7.832;2022-10-16T06:43:33;16.90;99.90
7566;DHT22;3824;48.010;7.832;2022-10-16T06:46:02;16.90;99.90
7566;DHT22;3824;48.010;7.832;2022-10-16T06:48:31;17.00;99.90
7566;DHT22;3824;48.010;7.832;2022-10-16T06:50:58;17.00;99.90
7566;DHT22;3824;48.010;7.832;2022-10-16T06:53:28;17.10;99.90
7566;DHT22;3824;48.010;7.832;2022-10-16T06:55:55;17.00;99.90
7566;DHT22;3824;48.010;7.832;2022-10-16T06:58:22;16.90;99.90
7566;DHT22;3824;48.010;7.832;2022-10-16T07:00:50;16.70;99.90
7566;DHT22;3824;48.010;7.832;2022-10-16T07:03:21;16.60;99.90
7566;DHT22;3824;48.010;7.832;2022-10-16T07:05:49;16.50;99.90
7566;DHT22;3824;48.010;7.832;2022-10-16T07:08:16;16.50;99.90
7566;DHT22;3824;48.010;7.832;2022-10-16T07:10:42;16.50;99.90
7566;DHT22;3824;48.010;7.832;2022-10-16T07:13:09;16.50;99.90
7566;DHT22;3824;48.010;7.832;2022-10-16T07:15:38;16.50;99.90
7566;DHT22;3824;48.010;7.832;2022-10-16T07:18:05;16.50;99.90
7566;DHT22;3824;48.010;7.832;2022-10-16T07:20:32;16.60;99.90
7566;DHT22;3824;48.010;7.832;2022-10-16T07:23:00;16.60;99.90
7566;DHT22;3824;48.010;7.832;2022-10-16T07:25:27;16.70;99.90
7566;DHT22;3824;48.010;7.832;2022-10-16T07:27:54;16.70;99.90
7566;DHT22;3824;48.010;7.832;2022-10-16T07:30:22;16.60;99.90
7566;DHT22;3824;48.010;7.832;2022-10-16T07:32:49;16.60;99.90
7566;DHT22;3824;48.010;7.832;2022-10-16T07:35:15;16.60;99.90
7566;DHT22;3824;48.010;7.832;2022-10-16T07:37:44;16.60;99.90
7566;DHT22;3824;48.010;7.832;2022-10-16T07:40:13;16.60;99.90
7566;DHT22;3824;48.010;7.832;2022-10-16T07:42:39;16.60;99.90
7566;DHT22;3824;48.010;7.832;2022-10-16T07:45:07;16.60;99.90
7566;DHT22;3824;48.010;7.832;2022-10-16T07:47:34;16.70;99.90
7566;DHT22;3824;48.010;7.832;2022-10-16T07:50:00;16.80;99.90
7566;DHT22;3824;48.010;7.832;2022-10-16T07:52:27;16.90;99.90
7566;DHT22;3824;48.010;7.832;2022-10-16T07:54:54;17.00;99.90
7566;DHT22;3824;48.010;7.832;2022-10-16T07:57:22;17.10;99.90
7566;DHT22;3824;48.010;7.832;2022-10-16T07:59:49;17.30;99.90
7566;DHT22;3824;48.010;7.832;2022-10-16T08:02:16;17.40;99.90
7566;DHT22;3824;48.010;7.832;2022-10-16T08:04:42;17.50;99.90
7566;DHT22;3824;48.010;7.832;2022-10-16T08:07:09;17.60;99.90
7566;DHT22;3824;48.010;7.832;2022-10-16T08:09:36;17.70;99.90
7566;DHT22;3824;48.010;7.832;2022-10-16T08:12:03;17.80;99.90
7566;DHT22;3824;48.010;7.832;2022-10-16T08:14:32;18.00;99.90
7566;DHT22;3824;48.010;7.832;2022-10-16T08:16:58;18.10;99.90
7566;DHT22;3824;48.010;7.832;2022-10-16T08:19:27;18.20;99.90
7566;DHT22;3824;48.010;7.832;2022-10-16T08:21:54;19.10;99.90
7566;DHT22;3824;48.010;7.832;2022-10-16T08:24:21;18.50;99.90
7566;DHT22;3824;48.010;7.832;2022-10-16T08:26:48;18.60;99.90
7566;DHT22;3824;48.010;7.832;2022-10-16T08:29:15;18.70;99.90
7566;DHT22;3824;48.010;7.832;2022-10-16T08:31:43;18.80;99.90
7566;DHT22;3824;48.010;7.832;2022-10-16T08:34:10;18.90;99.90
7566;DHT22;3824;48.010;7.832;2022-10-16T08:36:37;19.00;99.90
7566;DHT22;3824;48.010;7.832;2022-10-16T08:39:03;19.10;99.90
7566;DHT22;3824;48.010;7.832;2022-10-16T08:41:48;19.20;99.90
7566;DHT22;3824;48.010;7.832;2022-10-16T08:44:35;19.30;99.90
7566;DHT22;3824;48.010;7.832;2022-10-16T08:47:13;19.40;99.90
7566;DHT22;3824;48.010;7.832;2022-10-16T08:49:55;19.40;99.90
7566;DHT22;3824;48.010;7.832;2022-10-16T08:52:25;19.40;99.90
7566;DHT22;3824;48.010;7.832;2022-10-16T08:54:55;19.50;99.90
7566;DHT22;3824;48.010;7.832;2022-10-16T08:57:25;19.50;99.90
7566;DHT22;3824;48.010;7.832;2022-10-16T08:59:53;19.60;99.90
7566;DHT22;3824;48.010;7.832;2022-10-16T09:02:30;19.70;99.90
7566;DHT22;3824;48.010;7.832;2022-10-16T09:05:17;19.80;99.90
7566;DHT22;3824;48.010;7.832;2022-10-16T09:07:54;20.00;99.90
7566;DHT22;3824;48.010;7.832;2022-10-16T09:10:34;20.00;99.90
7566;DHT22;3824;48.010;7.832;2022-10-16T09:13:11;20.20;99.90
7566;DHT22;3824;48.010;7.832;2022-10-16T09:15:49;20.30;99.90
7566;DHT22;3824;48.010;7.832;2022-10-16T09:18:26;20.50;99.90
7566;DHT22;3824;48.010;7.832;2022-10-16T09:20:59;20.60;99.90
7566;DHT22;3824;48.010;7.832;2022-10-16T09:23:34;20.80;99.90
7566;DHT22;3824;48.010;7.832;2022-10-16T09:26:03;20.90;99.90
7566;DHT22;3824;48.010;7.832;2022-10-16T09:28:30;21.00;99.90
7566;DHT22;3824;48.010;7.832;2022-10-16T09:30:57;21.10;99.90
7566;DHT22;3824;48.010;7.832;2022-10-16T09:33:29;21.20;99.90
7566;DHT22;3824;48.010;7.832;2022-10-16T09:35:57;21.40;99.90
7566;DHT22;3824;48.010;7.832;2022-10-16T09:38:28;21.50;99.90
7566;DHT22;3824;48.010;7.832;2022-10-16T09:40:56;21.70;99.90
7566;DHT22;3824;48.010;7.832;2022-10-16T09:43:25;21.80;99.90
7566;DHT22;3824;48.010;7.832;2022-10-16T09:45:58;22.00;99.90
7566;DHT22;3824;48.010;7.832;2022-10-16T09:48:36;22.20;99.90
7566;DHT22;3824;48.010;7.832;2022-10-16T09:51:06;22.40;99.90
7566;DHT22;3824;48.010;7.832;2022-10-16T09:53:41;22.70;99.90
7566;DHT22;3824;48.010;7.832;2022-10-16T09:56:10;22.90;99.90
7566;DHT22;3824;48.010;7.832;2022-10-16T09:58:42;23.10;99.90
7566;DHT22;3824;48.010;7.832;2022-10-16T10:01:13;23.30;99.90
7566;DHT22;3824;48.010;7.832;2022-10-16T10:03:43;23.40;99.90
7566;DHT22;3824;48.010;7.832;2022-10-16T10:06:21;23.50;99.90
7566;DHT22;3824;48.010;7.832;2022-10-16T10:09:01;23.60;99.90
7566;DHT22;3824;48.010;7.832;2022-10-16T10:11:50;23.80;99.90
7566;DHT22;3824;48.010;7.832;2022-10-16T10:14:24;24.00;99.90
7566;DHT22;3824;48.010;7.832;2022-10-16T10:16:52;24.00;99.90
7566;DHT22;3824;48.010;7.832;2022-10-16T10:19:22;24.10;99.90
7566;DHT22;3824;48.010;7.832;2022-10-16T10:21:50;24.20;99.90
7566;DHT22;3824;48.010;7.832;2022-10-16T10:24:18;24.20;99.90
7566;DHT22;3824;48.010;7.832;2022-10-16T10:26:54;24.10;99.90
7566;DHT22;3824;48.010;7.832;2022-10-16T10:29:31;24.10;99.90
7566;DHT22;3824;48.010;7.832;2022-10-16T10:32:09;24.10;99.90
7566;DHT22;3824;48.010;7.832;2022-10-16T10:34:49;24.10;99.90
7566;DHT22;3824;48.010;7.832;2022-10-16T10:37:37;24.10;99.90
7566;DHT22;3824;48.010;7.832;2022-10-16T10:40:15;24.10;99.90
7566;DHT22;3824;48.010;7.832;2022-10-16T10:42:47;24.20;99.90
7566;DHT22;3824;48.010;7.832;2022-10-16T10:45:25;24.30;99.90
7566;DHT22;3824;48.010;7.832;2022-10-16T10:48:12;24.30;99.90
7566;DHT22;3824;48.010;7.832;2022-10-16T10:50:49;24.40;99.90
7566;DHT22;3824;48.010;7.832;2022-10-16T10:53:25;24.50;99.90
7566;DHT22;3824;48.010;7.832;2022-10-16T10:56:03;24.50;99.90
7566;DHT22;3824;48.010;7.832;2022-10-16T10:58:57;24.50;99.90
7566;DHT22;3824;48.010;7.832;2022-10-16T11:01:33;24.50;99.90
7566;DHT22;3824;48.010;7.832;2022-10-16T11:04:23;24.50;99.90
7566;DHT22;3824;48.010;7.832;2022-10-16T11:06:59;24.50;99.80
7566;DHT22;3824;48.010;7.832;2022-10-16T11:09:30;24.50;99.60
7566;DHT22;3824;48.010;7.832;2022-10-16T11:12:01;24.50;99.60
7566;DHT22;3824;48.010;7.832;2022-10-16T11:14:36;24.60;99.70
7566;DHT22;3824;48.010;7.832;2022-10-16T11:17:10;24.70;99.60
7566;DHT22;3824;48.010;7.832;2022-10-16T11:19:44;24.80;99.60
7566;DHT22;3824;48.010;7.832;2022-10-16T11:22:18;24.80;99.60
7566;DHT22;3824;48.010;7.832;2022-10-16T11:24:49;24.90;99.80
7566;DHT22;3824;48.010;7.832;2022-10-16T11:27:19;25.00;99.60
7566;DHT22;3824;48.010;7.832;2022-10-16T11:29:55;25.00;99.10
7566;DHT22;3824;48.010;7.832;2022-10-16T11:32:27;25.00;98.60
7566;DHT22;3824;48.010;7.832;2022-10-16T11:35:00;25.10;98.60
7566;DHT22;3824;48.010;7.832;2022-10-16T11:37:33;25.20;98.50
7566;DHT22;3824;48.010;7.832;2022-10-16T11:40:11;25.20;98.40
7566;DHT22;3824;48.010;7.832;2022-10-16T11:42:48;25.40;98.50
7566;DHT22;3824;48.010;7.832;2022-10-16T11:45:26;25.30;98.10
7566;DHT22;3824;48.010;7.832;2022-10-16T11:47:58;25.30;97.90
7566;DHT22;3824;48.010;7.832;2022-10-16T11:50:33;25.30;97.90
7566;DHT22;3824;48.010;7.832;2022-10-16T11:53:07;25.30;97.90
7566;DHT22;3824;48.010;7.832;2022-10-16T11:55:38;25.40;97.80
7566;DHT22;3824;48.010;7.832;2022-10-16T11:58:08;25.40;97.80
7566;DHT22;3824;48.010;7.832;2022-10-16T12:00:42;25.40;97.70
7566;DHT22;3824;48.010;7.832;2022-10-16T12:03:17;25.50;97.80
7566;DHT22;3824;48.010;7.832;2022-10-16T12:05:55;25.60;97.50
7566;DHT22;3824;48.010;7.832;2022-10-16T12:08:26;25.60;97.70
7566;DHT22;3824;48.010;7.832;2022-10-16T12:10:54;25.60;97.50
7566;DHT22;3824;48.010;7.832;2022-10-16T12:13:35;25.70;97.10
7566;DHT22;3824;48.010;7.832;2022-10-16T12:16:18;25.70;96.50
7566;DHT22;3824;48.010;7.832;2022-10-16T12:18:47;25.70;96.80
7566;DHT22;3824;48.010;7.832;2022-10-16T12:21:16;25.70;96.80
7566;DHT22;3824;48.010;7.832;2022-10-16T12:23:49;25.70;97.00
7566;DHT22;3824;48.010;7.832;2022-10-16T12:26:24;25.70;96.90
7566;DHT22;3824;48.010;7.832;2022-10-16T12:28:52;25.70;97.20
7566;DHT22;3824;48.010;7.832;2022-10-16T12:31:19;25.70;97.10
7566;DHT22;3824;48.010;7.832;2022-10-16T12:33:56;25.80;97.20
7566;DHT22;3824;48.010;7.832;2022-10-16T12:36:29;25.80;97.40
7566;DHT22;3824;48.010;7.832;2022-10-16T12:38:58;25.80;97.50
7566;DHT22;3824;48.010;7.832;2022-10-16T12:41:27;25.80;97.10
7566;DHT22;3824;48.010;7.832;2022-10-16T12:43:54;25.70;97.00
7566;DHT22;3824;48.010;7.832;2022-10-16T12:46:24;25.80;96.80
7566;DHT22;3824;48.010;7.832;2022-10-16T12:48:51;25.70;96.70
7566;DHT22;3824;48.010;7.832;2022-10-16T12:51:33;25.70;96.60
7566;DHT22;3824;48.010;7.832;2022-10-16T12:54:03;25.50;96.50
7566;DHT22;3824;48.010;7.832;2022-10-16T12:56:41;25.50;96.70
7566;DHT22;3824;48.010;7.832;2022-10-16T12:59:21;25.50;96.80
7566;DHT22;3824;48.010;7.832;2022-10-16T13:02:34;25.40;96.60
7566;DHT22;3824;48.010;7.832;2022-10-16T13:05:16;25.40;96.40
7566;DHT22;3824;48.010;7.832;2022-10-16T13:07:53;25.30;96.60
7566;DHT22;3824;48.010;7.832;2022-10-16T13:10:28;25.40;96.50
7566;DHT22;3824;48.010;7.832;2022-10-16T13:16:12;25.40;96.70
7566;DHT22;3824;48.010;7.832;2022-10-16T13:18:48;25.40;96.80
7566;DHT22;3824;48.010;7.832;2022-10-16T13:21:29;25.30;96.30
7566;DHT22;3824;48.010;7.832;2022-10-16T13:24:02;25.20;95.80
7566;DHT22;3824;48.010;7.832;2022-10-16T13:26:41;25.10;95.60
7566;DHT22;3824;48.010;7.832;2022-10-16T13:29:09;25.10;95.40
7566;DHT22;3824;48.010;7.832;2022-10-16T13:31:38;25.10;95.20
7566;DHT22;3824;48.010;7.832;2022-10-16T13:34:05;24.30;95.00
7566;DHT22;3824;48.010;7.832;2022-10-16T13:36:35;25.20;95.20
7566;DHT22;3824;48.010;7.832;2022-10-16T13:39:13;25.20;94.90
7566;DHT22;3824;48.010;7.832;2022-10-16T13:41:41;25.20;94.80
7566;DHT22;3824;48.010;7.832;2022-10-16T13:44:17;25.20;95.00
7566;DHT22;3824;48.010;7.832;2022-10-16T13:46:45;23.80;94.20
7566;DHT22;3824;48.010;7.832;2022-10-16T13:49:14;25.20;95.00
7566;DHT22;3824;48.010;7.832;2022-10-16T13:51:53;25.10;95.20
7566;DHT22;3824;48.010;7.832;2022-10-16T13:54:23;25.00;95.10
7566;DHT22;3824;48.010;7.832;2022-10-16T13:56:52;25.00;95.20
7566;DHT22;3824;48.010;7.832;2022-10-16T13:59:26;24.90;95.30
7566;DHT22;3824;48.010;7.832;2022-10-16T14:01:55;24.80;95.50
7566;DHT22;3824;48.010;7.832;2022-10-16T14:04:23;24.80;95.80
7566;DHT22;3824;48.010;7.832;2022-10-16T14:06:51;24.70;95.70
7566;DHT22;3824;48.010;7.832;2022-10-16T14:09:23;24.70;95.70
7566;DHT22;3824;48.010;7.832;2022-10-16T14:11:53;24.60;95.70
7566;DHT22;3824;48.010;7.832;2022-10-16T14:14:22;24.60;95.70
7566;DHT22;3824;48.010;7.832;2022-10-16T14:16:49;24.60;95.80
7566;DHT22;3824;48.010;7.832;2022-10-16T14:19:20;24.60;95.80
7566;DHT22;3824;48.010;7.832;2022-10-16T14:21:49;24.70;95.80
7566;DHT22;3824;48.010;7.832;2022-10-16T14:24:25;24.80;95.60
7566;DHT22;3824;48.010;7.832;2022-10-16T14:26:54;24.80;95.30
7566;DHT22;3824;48.010;7.832;2022-10-16T14:29:23;24.90;95.30
7566;DHT22;3824;48.010;7.832;2022-10-16T14:31:57;24.80;95.30
7566;DHT22;3824;48.010;7.832;2022-10-16T14:34:29;24.90;95.20
7566;DHT22;3824;48.010;7.832;2022-10-16T14:37:00;24.90;95.30
7566;DHT22;3824;48.010;7.832;2022-10-16T14:39:32;25.00;95.40
7566;DHT22;3824;48.010;7.832;2022-10-16T14:42:00;24.90;95.40
7566;DHT22;3824;48.010;7.832;2022-10-16T14:44:31;24.90;95.60
7566;DHT22;3824;48.010;7.832;2022-10-16T14:47:07;24.90;95.70
7566;DHT22;3824;48.010;7.832;2022-10-16T14:49:35;24.80;95.60
7566;DHT22;3824;48.010;7.832;2022-10-16T14:52:04;24.80;95.60
7566;DHT22;3824;48.010;7.832;2022-10-16T14:54:31;24.80;95.80
7566;DHT22;3824;48.010;7.832;2022-10-16T14:56:59;24.80;95.90
7566;DHT22;3824;48.010;7.832;2022-10-16T14:59:29;24.70;96.10
7566;DHT22;3824;48.010;7.832;2022-10-16T15:01:57;24.60;96.00
7566;DHT22;3824;48.010;7.832;2022-10-16T15:04:24;24.50;96.00
7566;DHT22;3824;48.010;7.832;2022-10-16T15:06:50;24.40;96.10
7566;DHT22;3824;48.010;7.832;2022-10-16T15:09:17;24.30;96.20
7566;DHT22;3824;48.010;7.832;2022-10-16T15:11:44;24.30;96.30
7566;DHT22;3824;48.010;7.832;2022-10-16T15:14:13;24.30;96.30
7566;DHT22;3824;48.010;7.832;2022-10-16T15:16:40;24.20;96.30
7566;DHT22;3824;48.010;7.832;2022-10-16T15:19:07;24.20;96.40
7566;DHT22;3824;48.010;7.832;2022-10-16T15:21:33;24.20;96.60
7566;DHT22;3824;48.010;7.832;2022-10-16T15:24:00;24.10;97.00
7566;DHT22;3824;48.010;7.832;2022-10-16T15:26:28;24.10;97.30
7566;DHT22;3824;48.010;7.832;2022-10-16T15:28:55;24.20;97.20
7566;DHT22;3824;48.010;7.832;2022-10-16T15:31:24;24.10;97.20
7566;DHT22;3824;48.010;7.832;2022-10-16T15:33:52;24.00;97.30
7566;DHT22;3824;48.010;7.832;2022-10-16T15:36:27;24.00;97.50
7566;DHT22;3824;48.010;7.832;2022-10-16T15:38:54;23.90;97.50
7566;DHT22;3824;48.010;7.832;2022-10-16T15:41:22;23.80;97.50
7566;DHT22;3824;48.010;7.832;2022-10-16T15:43:50;23.70;97.50
7566;DHT22;3824;48.010;7.832;2022-10-16T15:46:18;23.60;97.90
7566;DHT22;3824;48.010;7.832;2022-10-16T15:48:47;23.60;98.00
7566;DHT22;3824;48.010;7.832;2022-10-16T15:51:14;23.50;98.10
7566;DHT22;3824;48.010;7.832;2022-10-16T15:53:42;23.50;98.30
7566;DHT22;3824;48.010;7.832;2022-10-16T15:56:10;23.40;98.50
7566;DHT22;3824;48.010;7.832;2022-10-16T15:58:37;23.40;98.80
7566;DHT22;3824;48.010;7.832;2022-10-16T16:01:05;23.30;98.90
7566;DHT22;3824;48.010;7.832;2022-10-16T16:03:34;23.30;99.10
7566;DHT22;3824;48.010;7.832;2022-10-16T16:06:06;23.30;99.30
7566;DHT22;3824;48.010;7.832;2022-10-16T16:08:33;23.20;99.50
7566;DHT22;3824;48.010;7.832;2022-10-16T16:11:01;23.10;99.80
7566;DHT22;3824;48.010;7.832;2022-10-16T16:13:28;23.00;99.90
7566;DHT22;3824;48.010;7.832;2022-10-16T16:15:55;22.90;99.90
7566;DHT22;3824;48.010;7.832;2022-10-16T16:18:21;22.80;99.90
7566;DHT22;3824;48.010;7.832;2022-10-16T16:20:49;22.80;99.90
7566;DHT22;3824;48.010;7.832;2022-10-16T16:23:17;22.70;99.90
7566;DHT22;3824;48.010;7.832;2022-10-16T16:25:44;22.60;99.90
7566;DHT22;3824;48.010;7.832;2022-10-16T16:28:11;22.60;99.90